This is the latest recevied weather packets stored in our database for station/object DM4XI-13. If no packets are shown the sender has not sent any weather packets the latest 1 day(s).
| Time | Temp. | Humidity | Pressure | Rain* | Wind** | Luminosity | Snow |
|---|---|---|---|---|---|---|---|
| 1778058159 | 16.11° C | 71% | 1005.2 hPa | 0 mm | 0.45 m/s, 165° | 221 W/m² | - |
| 1778058098 | 16.11° C | 70% | 1005.2 hPa | 0 mm | 0 m/s | 215 W/m² | - |
| 1778057914 | 16.67° C | 69% | 1005.2 hPa | 0 mm | 0.89 m/s, 170° | 230 W/m² | - |
| 1778057426 | 15.56° C | 73% | 1005.2 hPa | 0 mm | 0.45 m/s, 134° | 312 W/m² | - |
| 1778057365 | 15.56° C | 73% | 1005.2 hPa | 0 mm | 0.45 m/s, 129° | 294 W/m² | - |
| 1778057304 | 15.56° C | 73% | 1005.4 hPa | 0 mm | 0.45 m/s, 171° | 279 W/m² | - |
| 1778057061 | 16.11° C | 72% | 1005.1 hPa | 0 mm | 0.45 m/s, 169° | 219 W/m² | - |
| 1778057000 | 16.11° C | 70% | 1005.2 hPa | 0 mm | 0.89 m/s, 181° | 253 W/m² | - |
| 1778056816 | 15.56° C | 73% | 1005.1 hPa | 0 mm | 1.34 m/s, 191° | 448 W/m² | - |
| 1778056755 | 15.56° C | 73% | 1005.2 hPa | 0 mm | 0.45 m/s, 191° | 334 W/m² | - |
| 1778056694 | 16.11° C | 72% | 1005.2 hPa | 0 mm | 0.45 m/s, 178° | 415 W/m² | - |
| 1778056511 | 16.11° C | 72% | 1005.2 hPa | 0 mm | 0.45 m/s, 175° | 311 W/m² | - |
| 1778056389 | 16.11° C | 71% | 1005.2 hPa | 0 mm | 0 m/s | 269 W/m² | - |
| 1778056145 | 15.56° C | 72% | 1005.3 hPa | 0 mm | 0 m/s | 260 W/m² | - |
| 1778056084 | 15.56° C | 72% | 1005.3 hPa | 0 mm | 0 m/s | 268 W/m² | - |
| 1778056023 | 15.56° C | 72% | 1005.2 hPa | 0 mm | 0 m/s | 273 W/m² | - |
| 1778055962 | 15.56° C | 75% | 1005.4 hPa | 0 mm | 0 m/s | 267 W/m² | - |
| 1778055715 | 15.56° C | 72% | 1005.4 hPa | 0 mm | 0.45 m/s, 210° | 219 W/m² | - |
| 1778055635 | 15.56° C | 71% | 1005.4 hPa | 0 mm | 0 m/s | 185 W/m² | - |
| 1778055513 | 15.56° C | 73% | 1005.3 hPa | 0 mm | 0 m/s | 171 W/m² | - |
| 1778055421 | 15.56° C | 73% | 1005.3 hPa | 0 mm | 0 m/s | 172 W/m² | - |
| 1778055361 | 15.56° C | 73% | 1005.4 hPa | 0 mm | 0 m/s | 176 W/m² | - |
| 1778055238 | 15.56° C | 72% | 1005.2 hPa | 0 mm | 0.45 m/s, 196° | 190 W/m² | - |
| 1778055177 | 15.56° C | 71% | 1005.3 hPa | 0 mm | 0.89 m/s, 184° | 190 W/m² | - |
| 1778055055 | 15.56° C | 69% | 1005.5 hPa | 0 mm | 0.45 m/s, 196° | 176 W/m² | - |
* Rain latest hour (hover to see other rain measurements)
** Current wind speed in m/s (hover to see current wind gust speed)